createdAt,value
2018-10-03T00:01:40.817Z,8.60
2018-10-03T00:04:08.813Z,8.50
2018-10-03T00:06:36.793Z,8.60
2018-10-03T00:09:06.597Z,8.60
2018-10-03T00:11:34.614Z,8.60
2018-10-03T00:14:02.731Z,8.60
2018-10-03T00:16:30.714Z,8.70
2018-10-03T00:18:58.722Z,8.70
2018-10-03T00:21:26.815Z,8.70
2018-10-03T00:23:54.821Z,8.60
2018-10-03T00:26:22.819Z,8.70
2018-10-03T00:28:51.009Z,8.60
2018-10-03T00:31:18.977Z,8.60
2018-10-03T00:33:46.980Z,8.50
2018-10-03T00:36:14.958Z,8.50
2018-10-03T00:38:42.951Z,8.50
2018-10-03T00:41:10.937Z,8.50
2018-10-03T00:43:39.083Z,8.40
2018-10-03T00:46:07.406Z,8.40
2018-10-03T00:48:35.634Z,8.40
2018-10-03T00:51:03.664Z,8.40
2018-10-03T00:53:31.810Z,8.40
2018-10-03T00:56:00.056Z,8.30
2018-10-03T00:58:28.195Z,8.20
2018-10-03T01:00:56.359Z,8.20
2018-10-03T01:03:24.524Z,8.20
2018-10-03T01:05:52.614Z,8.20
2018-10-03T01:08:20.717Z,8.10
2018-10-03T01:10:48.865Z,8.10
2018-10-03T01:13:16.979Z,8.10
2018-10-03T01:15:45.077Z,8.10
2018-10-03T01:18:13.143Z,8.20
2018-10-03T01:20:41.401Z,8.20
2018-10-03T01:23:09.489Z,8.20
2018-10-03T01:25:37.524Z,8.30
2018-10-03T01:28:05.781Z,8.30
2018-10-03T01:30:33.788Z,8.30
2018-10-03T01:33:01.779Z,8.40
2018-10-03T01:35:29.730Z,8.30
2018-10-03T01:37:57.787Z,8.30
2018-10-03T01:40:25.767Z,8.30
2018-10-03T01:42:53.696Z,8.30
2018-10-03T01:45:21.675Z,8.20
2018-10-03T01:47:49.766Z,8.20
2018-10-03T01:50:17.751Z,8.20
2018-10-03T01:52:45.753Z,8.20
2018-10-03T01:55:13.758Z,8.20
2018-10-03T01:57:41.718Z,8.20
2018-10-03T02:00:09.717Z,8.20
2018-10-03T02:02:37.692Z,8.20
2018-10-03T02:05:05.736Z,8.20
2018-10-03T02:07:33.801Z,8.20
2018-10-03T02:10:01.776Z,8.20
2018-10-03T02:12:29.746Z,8.20
2018-10-03T02:14:59.798Z,8.20
2018-10-03T02:17:27.778Z,8.20
2018-10-03T02:19:55.762Z,8.20
2018-10-03T02:22:23.724Z,8.20
2018-10-03T02:24:51.799Z,8.10
2018-10-03T02:27:19.908Z,8.10
2018-10-03T02:29:47.884Z,8.00
2018-10-03T02:32:15.947Z,8.00
2018-10-03T02:34:43.940Z,7.90
2018-10-03T02:37:11.923Z,8.00
2018-10-03T02:39:39.850Z,8.00
2018-10-03T02:42:07.920Z,8.00
2018-10-03T02:44:35.979Z,8.00
2018-10-03T02:47:03.929Z,8.00
2018-10-03T02:49:31.915Z,8.10
2018-10-03T02:51:59.896Z,8.20
2018-10-03T02:54:27.941Z,8.20
2018-10-03T02:56:55.922Z,8.20
2018-10-03T02:59:23.913Z,8.20
2018-10-03T03:01:51.980Z,8.30
2018-10-03T03:04:19.888Z,8.20
2018-10-03T03:06:47.811Z,8.30
2018-10-03T03:09:15.745Z,8.30
2018-10-03T03:11:43.740Z,8.30
2018-10-03T03:14:11.686Z,8.30
2018-10-03T03:16:39.654Z,8.30
2018-10-03T03:19:07.850Z,8.30
2018-10-03T03:21:36.174Z,8.30
2018-10-03T03:24:04.193Z,8.30
2018-10-03T03:26:32.306Z,8.30
2018-10-03T03:29:00.304Z,8.30
2018-10-03T03:31:28.353Z,8.30
2018-10-03T03:33:56.318Z,8.30
2018-10-03T03:36:24.349Z,8.30
2018-10-03T03:38:52.321Z,8.40
2018-10-03T03:41:20.274Z,8.40
2018-10-03T03:43:48.505Z,8.40
2018-10-03T03:46:16.463Z,8.50
2018-10-03T03:48:44.448Z,8.40
2018-10-03T03:51:12.458Z,8.50
2018-10-03T03:53:40.456Z,8.50
2018-10-03T03:56:08.461Z,8.50
2018-10-03T03:58:36.392Z,8.50
2018-10-03T04:01:04.486Z,8.50
2018-10-03T04:03:32.470Z,8.40
2018-10-03T04:06:00.422Z,8.40
2018-10-03T04:08:28.374Z,8.40
2018-10-03T04:10:56.477Z,8.40
2018-10-03T04:13:24.460Z,8.40
2018-10-03T04:15:52.492Z,8.30
2018-10-03T04:18:20.662Z,8.30
2018-10-03T04:20:48.692Z,8.30
2018-10-03T04:23:16.701Z,8.20
2018-10-03T04:25:44.630Z,8.20
2018-10-03T04:28:12.711Z,8.20
2018-10-03T04:30:40.743Z,8.20
2018-10-03T04:33:08.712Z,8.20
2018-10-03T04:35:36.643Z,8.20
2018-10-03T04:38:04.669Z,8.20
2018-10-03T04:40:32.633Z,8.20
2018-10-03T04:43:00.574Z,8.20
2018-10-03T04:45:28.549Z,8.20
2018-10-03T04:47:56.574Z,8.20
2018-10-03T04:50:24.559Z,8.20
2018-10-03T04:52:52.513Z,8.20
2018-10-03T04:55:20.503Z,8.30
2018-10-03T04:57:48.527Z,8.20
2018-10-03T05:00:16.514Z,8.20
2018-10-03T05:02:44.478Z,8.20
2018-10-03T05:05:12.442Z,8.20
2018-10-03T05:07:40.532Z,8.20
2018-10-03T05:10:08.468Z,8.20
2018-10-03T05:12:36.424Z,8.20
2018-10-03T05:15:04.433Z,8.10
2018-10-03T05:17:32.467Z,8.10
2018-10-03T05:20:00.445Z,8.00
2018-10-03T05:22:28.505Z,8.00
2018-10-03T05:24:56.519Z,8.00
2018-10-03T05:27:24.475Z,7.90
2018-10-03T05:29:52.448Z,7.90
2018-10-03T05:32:20.407Z,7.90
2018-10-03T05:34:48.490Z,7.90
2018-10-03T05:37:16.523Z,7.90
2018-10-03T05:39:44.541Z,8.00
2018-10-03T05:42:12.532Z,8.00
2018-10-03T05:44:40.578Z,8.10
2018-10-03T05:47:08.992Z,8.10
2018-10-03T05:49:36.975Z,8.10
2018-10-03T05:52:04.974Z,8.10
2018-10-03T05:54:33.088Z,8.20
2018-10-03T05:57:01.042Z,8.20
2018-10-03T05:59:29.031Z,8.30
2018-10-03T06:01:56.998Z,8.30
2018-10-03T06:04:25.022Z,8.30
2018-10-03T06:06:53.016Z,8.30
2018-10-03T06:09:21.048Z,8.30
2018-10-03T06:11:50.089Z,8.30
2018-10-03T06:14:18.156Z,8.40
2018-10-03T06:16:46.103Z,8.40
2018-10-03T06:19:14.157Z,8.40
2018-10-03T06:21:42.189Z,8.40
2018-10-03T06:24:10.196Z,8.50
2018-10-03T06:26:38.155Z,8.60
2018-10-03T06:29:06.083Z,8.70
2018-10-03T06:31:34.075Z,8.90
2018-10-03T06:34:02.064Z,9.00
2018-10-03T06:36:30.051Z,9.10
2018-10-03T06:38:57.974Z,9.10
2018-10-03T06:41:26.078Z,9.10
2018-10-03T06:43:54.147Z,9.00
2018-10-03T06:46:22.143Z,9.10
2018-10-03T06:48:50.228Z,9.10
2018-10-03T06:51:18.246Z,9.10
2018-10-03T06:53:46.410Z,9.20
2018-10-03T06:56:14.448Z,9.20
2018-10-03T06:58:42.430Z,9.30
2018-10-03T07:01:10.580Z,9.30
2018-10-03T07:03:38.601Z,9.30
2018-10-03T07:06:06.632Z,9.40
2018-10-03T07:08:34.621Z,9.40
2018-10-03T07:11:02.590Z,9.40
2018-10-03T07:13:30.564Z,9.40
2018-10-03T07:15:58.501Z,9.30
2018-10-03T07:18:26.453Z,9.30
2018-10-03T07:20:54.397Z,9.30
2018-10-03T07:23:27.886Z,9.30
2018-10-03T07:25:55.818Z,9.30
2018-10-03T07:28:23.786Z,9.30
2018-10-03T07:30:51.789Z,9.30
2018-10-03T07:33:25.434Z,9.20
2018-10-03T07:35:53.456Z,9.20
2018-10-03T07:38:21.681Z,9.20
2018-10-03T07:41:03.400Z,9.20
2018-10-03T07:43:31.368Z,9.20
2018-10-03T07:45:59.327Z,9.20
2018-10-03T07:48:27.421Z,9.30
2018-10-03T07:50:56.528Z,9.30
2018-10-03T07:53:24.952Z,9.40
2018-10-03T07:55:52.980Z,9.60
2018-10-03T07:58:20.950Z,9.80
2018-10-03T08:00:53.884Z,10.00
2018-10-03T08:03:21.939Z,10.20
2018-10-03T08:05:49.953Z,10.30
2018-10-03T08:08:17.962Z,10.40
2018-10-03T08:10:46.075Z,10.40
2018-10-03T08:13:14.041Z,10.40
2018-10-03T08:15:42.033Z,10.50
2018-10-03T08:18:10.051Z,10.50
2018-10-03T08:20:41.704Z,10.60
2018-10-03T08:23:09.716Z,10.70
2018-10-03T08:25:37.759Z,10.70
2018-10-03T08:28:06.127Z,10.80
2018-10-03T08:30:34.135Z,10.90
2018-10-03T08:33:02.428Z,11.00
2018-10-03T08:35:30.336Z,11.00
2018-10-03T08:37:58.351Z,11.00
2018-10-03T08:40:26.392Z,10.90
2018-10-03T08:42:54.469Z,10.90
2018-10-03T08:45:22.569Z,10.90
2018-10-03T08:47:50.541Z,11.00
2018-10-03T08:50:18.516Z,11.10
2018-10-03T08:52:46.505Z,11.10
2018-10-03T08:55:14.586Z,11.10
2018-10-03T08:57:42.751Z,11.00
2018-10-03T09:00:11.048Z,11.00
2018-10-03T09:02:39.001Z,10.90
2018-10-03T09:05:08.054Z,10.80
2018-10-03T09:07:36.021Z,10.70
2018-10-03T09:10:04.065Z,10.70
2018-10-03T09:12:32.099Z,10.70
2018-10-03T09:15:00.090Z,10.70
2018-10-03T09:17:28.075Z,10.70
2018-10-03T09:19:56.037Z,10.70
2018-10-03T09:22:24.059Z,10.70
2018-10-03T09:24:52.013Z,10.70
2018-10-03T09:27:19.968Z,10.70
2018-10-03T09:29:47.974Z,10.90
2018-10-03T09:32:15.930Z,11.00
2018-10-03T09:34:43.926Z,11.00
2018-10-03T09:37:12.056Z,10.90
2018-10-03T09:39:40.135Z,10.80
2018-10-03T09:42:08.086Z,10.80
2018-10-03T09:44:36.171Z,10.80
2018-10-03T09:47:04.171Z,10.90
2018-10-03T09:49:32.204Z,11.10
2018-10-03T09:52:00.163Z,11.40
2018-10-03T09:54:28.277Z,11.70
2018-10-03T09:56:56.253Z,11.70
2018-10-03T09:59:24.208Z,11.70
2018-10-03T10:01:52.179Z,11.70
2018-10-03T10:04:20.272Z,11.60
2018-10-03T10:06:48.440Z,11.40
2018-10-03T10:09:16.404Z,11.30
2018-10-03T10:11:44.714Z,11.10
2018-10-03T10:14:12.435Z,11.10
2018-10-03T10:16:40.409Z,11.20
2018-10-03T10:19:08.486Z,11.20
2018-10-03T10:21:36.466Z,11.40
2018-10-03T10:24:04.463Z,11.70
2018-10-03T10:26:32.636Z,11.90
2018-10-03T10:29:00.648Z,11.90
2018-10-03T10:31:28.638Z,11.90
2018-10-03T10:33:56.635Z,11.80
2018-10-03T10:36:24.682Z,11.70
2018-10-03T10:38:52.707Z,11.60
2018-10-03T10:41:20.919Z,11.50
2018-10-03T10:43:48.755Z,11.40
2018-10-03T10:46:16.730Z,11.40
2018-10-03T10:48:44.669Z,11.20
2018-10-03T10:51:12.807Z,11.10
2018-10-03T10:53:40.775Z,10.90
2018-10-03T10:56:08.719Z,10.90
2018-10-03T10:58:36.761Z,11.10
2018-10-03T11:01:04.802Z,11.40
2018-10-03T11:03:32.790Z,11.90
2018-10-03T11:06:00.754Z,12.20
2018-10-03T11:08:28.746Z,12.40
2018-10-03T11:10:56.792Z,12.50
2018-10-03T11:13:24.772Z,12.40
2018-10-03T11:15:52.743Z,12.20
2018-10-03T11:18:20.699Z,12.10
2018-10-03T11:20:48.688Z,11.90
2018-10-03T11:23:16.654Z,11.70
2018-10-03T11:25:44.751Z,11.50
2018-10-03T11:28:12.767Z,11.30
2018-10-03T11:30:40.733Z,11.20
2018-10-03T11:33:08.701Z,11.10
2018-10-03T11:35:36.671Z,11.10
2018-10-03T11:38:04.900Z,11.00
2018-10-03T11:40:32.950Z,11.00
2018-10-03T11:43:01.043Z,11.10
2018-10-03T11:45:29.031Z,11.10
2018-10-03T11:47:57.037Z,11.20
2018-10-03T11:50:25.048Z,11.40
2018-10-03T11:52:53.150Z,11.50
2018-10-03T11:55:21.174Z,11.50
2018-10-03T11:57:49.132Z,11.70
2018-10-03T12:00:17.129Z,11.80
2018-10-03T12:02:45.296Z,11.90
2018-10-03T12:05:13.222Z,12.10
2018-10-03T12:07:41.194Z,12.40
2018-10-03T12:10:09.248Z,12.70
2018-10-03T12:12:37.288Z,12.80
2018-10-03T12:15:05.517Z,12.90
2018-10-03T12:17:33.521Z,12.90
2018-10-03T12:20:01.469Z,12.90
2018-10-03T12:22:29.568Z,13.00
2018-10-03T12:24:57.623Z,13.10
2018-10-03T12:27:25.605Z,13.10
2018-10-03T12:29:53.566Z,13.10
2018-10-03T12:32:21.792Z,13.10
2018-10-03T12:34:49.745Z,13.20
2018-10-03T12:37:17.878Z,13.40
2018-10-03T12:39:45.955Z,13.50
2018-10-03T12:42:13.927Z,13.50
2018-10-03T12:44:42.037Z,13.50
2018-10-03T12:47:10.026Z,13.60
2018-10-03T12:49:38.046Z,13.60
2018-10-03T12:52:06.937Z,13.70
2018-10-03T12:54:34.965Z,13.70
2018-10-03T12:57:02.988Z,13.70
2018-10-03T12:59:31.081Z,13.70
2018-10-03T13:01:59.306Z,13.60
2018-10-03T13:04:27.444Z,13.50
2018-10-03T13:06:55.618Z,13.40
2018-10-03T13:09:23.669Z,13.30
2018-10-03T13:11:51.855Z,13.20
2018-10-03T13:14:19.958Z,13.20
2018-10-03T13:16:48.047Z,13.10
2018-10-03T13:19:16.237Z,13.00
2018-10-03T13:21:44.255Z,12.80
2018-10-03T13:24:12.399Z,12.70
2018-10-03T13:26:40.507Z,12.60
2018-10-03T13:29:08.492Z,12.40
2018-10-03T13:31:36.595Z,12.40
2018-10-03T13:34:04.605Z,12.30
2018-10-03T13:36:32.609Z,12.30
2018-10-03T13:39:00.648Z,12.30
2018-10-03T13:41:29.630Z,12.30
2018-10-03T13:43:57.619Z,12.40
2018-10-03T13:46:25.627Z,12.40
2018-10-03T13:48:53.635Z,12.50
2018-10-03T13:51:21.663Z,12.50
2018-10-03T13:53:49.669Z,12.60
2018-10-03T13:56:18.794Z,12.60
2018-10-03T13:58:46.776Z,12.70
2018-10-03T14:01:14.757Z,12.80
2018-10-03T14:03:42.780Z,12.90
2018-10-03T14:06:10.905Z,12.80
2018-10-03T14:08:38.920Z,12.80
2018-10-03T14:11:07.393Z,12.70
2018-10-03T14:13:35.388Z,12.80
2018-10-03T14:16:03.722Z,12.90
2018-10-03T14:18:31.722Z,13.00
2018-10-03T14:20:59.670Z,13.10
2018-10-03T14:23:27.639Z,13.20
2018-10-03T14:25:55.639Z,13.20
2018-10-03T14:28:23.707Z,13.20
2018-10-03T14:30:51.777Z,13.20
2018-10-03T14:33:19.792Z,13.20
2018-10-03T14:35:47.914Z,13.30
2018-10-03T14:38:15.955Z,13.40
2018-10-03T14:40:43.958Z,13.40
2018-10-03T14:43:11.956Z,13.30
2018-10-03T14:45:40.260Z,13.30
2018-10-03T14:48:08.382Z,13.20
2018-10-03T14:50:37.413Z,13.20
2018-10-03T14:53:05.458Z,13.10
2018-10-03T14:55:33.543Z,13.00
2018-10-03T14:58:01.556Z,13.00
2018-10-03T15:00:29.617Z,12.80
2018-10-03T15:02:57.646Z,12.70
2018-10-03T15:05:25.655Z,12.50
2018-10-03T15:07:54.601Z,12.40
2018-10-03T15:10:22.938Z,12.40
2018-10-03T15:12:51.156Z,12.30
2018-10-03T15:15:19.428Z,12.20
2018-10-03T15:17:47.564Z,12.20
2018-10-03T15:20:21.982Z,12.10
2018-10-03T15:22:50.121Z,12.10
2018-10-03T15:25:18.183Z,12.00
2018-10-03T15:27:49.856Z,11.90
2018-10-03T15:30:18.212Z,11.90
2018-10-03T15:32:46.494Z,11.80
2018-10-03T15:35:18.345Z,11.80
2018-10-03T15:37:46.529Z,11.70
2018-10-03T15:40:14.565Z,11.60
2018-10-03T15:42:42.577Z,11.50
2018-10-03T15:45:11.665Z,11.50
2018-10-03T15:47:39.792Z,11.40
2018-10-03T15:50:08.586Z,11.40
2018-10-03T15:52:36.949Z,11.30
2018-10-03T15:55:05.249Z,11.30
2018-10-03T15:57:34.120Z,11.20
2018-10-03T16:00:02.328Z,11.10
2018-10-03T16:02:30.374Z,11.00
2018-10-03T16:04:58.423Z,10.90
2018-10-03T16:07:26.409Z,10.80
2018-10-03T16:09:54.397Z,10.80
2018-10-03T16:12:23.690Z,10.70
2018-10-03T16:14:51.636Z,10.70
2018-10-03T16:17:19.693Z,10.70
2018-10-03T16:19:47.703Z,10.70
2018-10-03T16:22:15.844Z,10.70
2018-10-03T16:24:43.861Z,10.60
2018-10-03T16:27:11.868Z,10.60
2018-10-03T16:29:40.263Z,10.60
2018-10-03T16:32:15.155Z,10.60
2018-10-03T16:34:43.174Z,10.60
2018-10-03T16:37:11.170Z,10.60
2018-10-03T16:39:39.157Z,10.50
2018-10-03T16:42:11.132Z,10.50
2018-10-03T16:44:39.090Z,10.50
2018-10-03T16:47:08.085Z,10.50
2018-10-03T16:49:36.072Z,10.50
2018-10-03T16:52:04.214Z,10.50
2018-10-03T16:54:32.294Z,10.50
2018-10-03T16:57:00.969Z,10.50
2018-10-03T16:59:29.096Z,10.50
2018-10-03T17:01:57.077Z,10.40
2018-10-03T17:04:25.108Z,10.40
2018-10-03T17:07:00.363Z,10.40
2018-10-03T17:09:28.373Z,10.40
2018-10-03T17:11:56.389Z,10.30
2018-10-03T17:14:28.049Z,10.30
2018-10-03T17:16:56.251Z,10.30
2018-10-03T17:19:24.464Z,10.20
2018-10-03T17:21:53.146Z,10.20
2018-10-03T17:24:22.552Z,10.10
2018-10-03T17:26:50.609Z,10.00
2018-10-03T17:29:18.648Z,9.90
2018-10-03T17:31:47.152Z,9.80
2018-10-03T17:34:16.228Z,9.60
2018-10-03T17:36:46.190Z,9.50
2018-10-03T17:39:14.676Z,9.50
2018-10-03T17:41:43.381Z,9.40
2018-10-03T17:44:11.990Z,9.50
2018-10-03T17:46:40.033Z,9.50
2018-10-03T17:49:08.084Z,9.50
2018-10-03T17:51:36.223Z,9.50
2018-10-03T17:54:04.232Z,9.50
2018-10-03T17:56:32.247Z,9.60
2018-10-03T17:59:08.264Z,9.60
2018-10-03T18:01:39.293Z,9.60
2018-10-03T18:04:07.348Z,9.60
2018-10-03T18:06:35.459Z,9.60
2018-10-03T18:09:04.929Z,9.60
2018-10-03T18:11:32.803Z,9.60
2018-10-03T18:14:00.872Z,9.60
2018-10-03T18:16:34.545Z,9.70
2018-10-03T18:19:02.659Z,9.70
2018-10-03T18:21:30.666Z,9.70
2018-10-03T18:23:59.558Z,9.70
2018-10-03T18:26:51.276Z,9.70
2018-10-03T18:29:19.323Z,9.70
2018-10-03T18:31:47.390Z,9.70
2018-10-03T18:34:15.546Z,9.70
2018-10-03T18:36:43.611Z,9.70
2018-10-03T18:39:11.869Z,9.70
2018-10-03T18:41:40.272Z,9.70
2018-10-03T18:44:08.456Z,9.70
2018-10-03T18:46:36.479Z,9.70
2018-10-03T18:49:04.496Z,9.70
2018-10-03T18:51:35.924Z,9.70
2018-10-03T18:54:03.943Z,9.70
2018-10-03T18:56:32.011Z,9.70
2018-10-03T18:59:00.115Z,9.70
2018-10-03T19:01:32.916Z,9.70
2018-10-03T19:04:00.891Z,9.70
2018-10-03T19:06:28.981Z,9.70
2018-10-03T19:08:58.021Z,9.60
2018-10-03T19:11:32.361Z,9.60
2018-10-03T19:14:00.391Z,9.60
2018-10-03T19:16:28.427Z,9.60
2018-10-03T19:18:56.461Z,9.60
2018-10-03T19:21:24.492Z,9.60
2018-10-03T19:23:57.078Z,9.60
2018-10-03T19:26:25.208Z,9.60
2018-10-03T19:28:53.233Z,9.60
2018-10-03T19:31:21.271Z,9.60
2018-10-03T19:33:57.579Z,9.60
2018-10-03T19:36:25.669Z,9.60
2018-10-03T19:38:53.625Z,9.50
2018-10-03T19:41:21.721Z,9.50
2018-10-03T19:43:54.066Z,9.50
2018-10-03T19:46:22.056Z,9.50
2018-10-03T19:48:50.215Z,9.50
2018-10-03T19:51:21.667Z,9.50
2018-10-03T19:53:49.780Z,9.50
2018-10-03T19:56:17.795Z,9.50
2018-10-03T19:58:45.821Z,9.50
2018-10-03T20:01:13.957Z,9.50
2018-10-03T20:03:42.201Z,9.40
2018-10-03T20:06:10.467Z,9.40
2018-10-03T20:08:45.905Z,9.40
2018-10-03T20:11:14.016Z,9.40
2018-10-03T20:13:42.211Z,9.40
2018-10-03T20:16:10.308Z,9.40
2018-10-03T20:18:38.365Z,9.40
2018-10-03T20:21:06.441Z,9.40
2018-10-03T20:23:34.460Z,9.40
2018-10-03T20:26:13.868Z,9.40
2018-10-03T20:28:41.876Z,9.40
2018-10-03T20:31:09.866Z,9.30
2018-10-03T20:33:37.822Z,9.30
2018-10-03T20:36:06.044Z,9.20
2018-10-03T20:38:33.995Z,9.10
2018-10-03T20:41:01.985Z,9.10
2018-10-03T20:43:29.991Z,9.00
2018-10-03T20:45:58.235Z,8.90
2018-10-03T20:48:26.271Z,8.80
2018-10-03T20:50:54.297Z,8.80
2018-10-03T20:53:22.302Z,8.70
2018-10-03T20:55:54.250Z,8.70
2018-10-03T20:58:22.239Z,8.70
2018-10-03T21:00:50.358Z,8.70
2018-10-03T21:03:18.339Z,8.70
2018-10-03T21:05:47.426Z,8.60
2018-10-03T21:08:15.432Z,8.60
2018-10-03T21:10:43.506Z,8.60
2018-10-03T21:13:11.876Z,8.60
2018-10-03T21:15:58.494Z,8.60
2018-10-03T21:18:26.515Z,8.60
2018-10-03T21:20:54.588Z,8.60
2018-10-03T21:23:22.640Z,8.60
2018-10-03T21:25:56.864Z,8.60
2018-10-03T21:28:24.914Z,8.60
2018-10-03T21:30:52.908Z,8.60
2018-10-03T21:33:20.936Z,8.70
2018-10-03T21:35:53.593Z,8.70
2018-10-03T21:38:21.554Z,8.70
2018-10-03T21:40:49.545Z,8.70
2018-10-03T21:43:17.509Z,8.70
2018-10-03T21:45:46.675Z,8.70
2018-10-03T21:48:14.693Z,8.70
2018-10-03T21:50:42.695Z,8.70
2018-10-03T21:53:10.705Z,8.70
2018-10-03T21:55:42.156Z,8.70
2018-10-03T21:58:10.177Z,8.70
2018-10-03T22:00:43.734Z,8.70
2018-10-03T22:03:11.723Z,8.70
2018-10-03T22:05:39.793Z,8.70
2018-10-03T22:08:07.774Z,8.70
2018-10-03T22:10:35.716Z,8.70
2018-10-03T22:13:07.659Z,8.70
2018-10-03T22:15:35.692Z,8.60
2018-10-03T22:18:03.739Z,8.60
2018-10-03T22:20:31.864Z,8.60
2018-10-03T22:22:59.905Z,8.60
2018-10-03T22:25:27.870Z,8.60
2018-10-03T22:27:55.885Z,8.50
2018-10-03T22:30:24.378Z,8.50
2018-10-03T22:32:52.407Z,8.40
2018-10-03T22:35:20.376Z,8.30
2018-10-03T22:37:55.877Z,8.20
2018-10-03T22:40:23.867Z,8.20
2018-10-03T22:42:51.864Z,8.10
2018-10-03T22:45:21.005Z,8.10
2018-10-03T22:47:48.988Z,8.10
2018-10-03T22:50:16.975Z,8.10
2018-10-03T22:52:44.941Z,8.10
2018-10-03T22:55:19.155Z,8.10
2018-10-03T22:57:47.118Z,8.00
2018-10-03T23:00:15.134Z,8.00
2018-10-03T23:02:43.102Z,7.90
2018-10-03T23:05:15.966Z,7.90
2018-10-03T23:07:43.971Z,7.90
2018-10-03T23:10:12.045Z,7.80
2018-10-03T23:12:49.628Z,7.80
2018-10-03T23:15:17.587Z,7.80
2018-10-03T23:17:45.581Z,7.80
2018-10-03T23:20:13.665Z,7.80
2018-10-03T23:22:41.634Z,7.80
2018-10-03T23:25:09.623Z,7.90
2018-10-03T23:27:37.645Z,7.90
2018-10-03T23:30:06.165Z,7.90
2018-10-03T23:32:34.079Z,7.90
2018-10-03T23:35:02.094Z,8.00
2018-10-03T23:37:30.129Z,8.00
2018-10-03T23:39:58.232Z,8.00
2018-10-03T23:42:26.245Z,8.10
2018-10-03T23:44:54.245Z,8.10
2018-10-03T23:47:22.244Z,8.10
2018-10-03T23:49:50.260Z,8.20
2018-10-03T23:52:18.390Z,8.20
2018-10-03T23:54:46.390Z,8.20
2018-10-03T23:57:14.434Z,8.20
2018-10-03T23:59:42.462Z,8.10
